createdAt,value
2023-12-31T00:00:00.777Z,100130
2023-12-31T00:01:04.141Z,100130
2023-12-31T00:02:00.656Z,100130
2023-12-31T00:03:01.147Z,100130
2023-12-31T00:04:00.739Z,100130
2023-12-31T00:05:00.693Z,100130
2023-12-31T00:06:00.703Z,100130
2023-12-31T00:07:00.794Z,100130
2023-12-31T00:08:00.669Z,100130
2023-12-31T00:09:00.660Z,100120
2023-12-31T00:10:01.893Z,100120
2023-12-31T00:11:00.653Z,100110
2023-12-31T00:12:00.656Z,100110
2023-12-31T00:13:00.946Z,100120
2023-12-31T00:14:00.654Z,100120
2023-12-31T00:15:00.808Z,100120
2023-12-31T00:16:00.685Z,100120
2023-12-31T00:17:00.652Z,100120
2023-12-31T00:18:00.779Z,100120
2023-12-31T00:19:01.912Z,100120
2023-12-31T00:20:00.934Z,100120
2023-12-31T00:21:00.747Z,100120
2023-12-31T00:22:00.786Z,100120
2023-12-31T00:23:00.921Z,100120
2023-12-31T00:24:00.658Z,100120
2023-12-31T00:25:00.687Z,100120
2023-12-31T00:26:00.664Z,100120
2023-12-31T00:27:00.751Z,100120
2023-12-31T00:28:00.661Z,100120
2023-12-31T00:29:00.702Z,100120
2023-12-31T00:30:00.730Z,100120
2023-12-31T00:31:00.703Z,100110
2023-12-31T00:32:00.682Z,100110
2023-12-31T00:33:00.757Z,100110
2023-12-31T00:34:00.738Z,100110
2023-12-31T00:35:00.704Z,100110
2023-12-31T00:36:00.698Z,100110
2023-12-31T00:37:00.723Z,100110
2023-12-31T00:38:03.263Z,100110
2023-12-31T00:39:00.664Z,100110
2023-12-31T00:40:00.724Z,100110
2023-12-31T00:41:00.673Z,100110
2023-12-31T00:42:00.740Z,100110
2023-12-31T00:43:00.879Z,100120
2023-12-31T00:44:00.683Z,100110
2023-12-31T00:45:00.640Z,100120
2023-12-31T00:46:00.685Z,100120
2023-12-31T00:47:00.657Z,100120
2023-12-31T00:48:00.728Z,100110
2023-12-31T00:49:00.735Z,100110
2023-12-31T00:50:00.733Z,100110
2023-12-31T00:51:01.799Z,100110
2023-12-31T00:52:00.760Z,100110
2023-12-31T00:53:01.199Z,100100
2023-12-31T00:54:00.688Z,100100
2023-12-31T00:55:00.768Z,100110
2023-12-31T00:56:00.690Z,100100
2023-12-31T00:57:00.669Z,100100
2023-12-31T00:58:00.666Z,100100
2023-12-31T00:59:00.927Z,100110
2023-12-31T01:00:00.948Z,100100
2023-12-31T01:01:00.745Z,100100
2023-12-31T01:02:00.713Z,100110
2023-12-31T01:03:00.901Z,100100
2023-12-31T01:04:00.650Z,100100
2023-12-31T01:05:00.844Z,100110
2023-12-31T01:06:04.649Z,100100
2023-12-31T01:07:00.664Z,100110
2023-12-31T01:08:01.366Z,100110
2023-12-31T01:09:00.720Z,100100
2023-12-31T01:10:00.857Z,100100
2023-12-31T01:11:00.764Z,100100
2023-12-31T01:12:00.694Z,100100
2023-12-31T01:13:00.738Z,100100
2023-12-31T01:14:00.796Z,100100
2023-12-31T01:15:00.687Z,100110
2023-12-31T01:16:00.728Z,100110
2023-12-31T01:17:00.693Z,100100
2023-12-31T01:18:00.705Z,100100
2023-12-31T01:19:00.776Z,100100
2023-12-31T01:20:00.692Z,100100
2023-12-31T01:21:00.936Z,100100
2023-12-31T01:22:00.729Z,100100
2023-12-31T01:23:00.826Z,100100
2023-12-31T01:24:00.716Z,100100
2023-12-31T01:25:00.651Z,100100
2023-12-31T01:26:00.677Z,100100
2023-12-31T01:27:00.696Z,100100
2023-12-31T01:28:00.660Z,100100
2023-12-31T01:29:00.658Z,100100
2023-12-31T01:30:00.695Z,100100
2023-12-31T01:31:00.738Z,100090
2023-12-31T01:32:00.650Z,100100
2023-12-31T01:33:00.904Z,100100
2023-12-31T01:34:00.680Z,100100
2023-12-31T01:35:00.806Z,100100
2023-12-31T01:36:00.649Z,100090
2023-12-31T01:37:00.795Z,100090
2023-12-31T01:38:00.685Z,100090
2023-12-31T01:39:00.658Z,100100
2023-12-31T01:40:00.709Z,100100
2023-12-31T01:41:00.690Z,100100
2023-12-31T01:42:00.692Z,100100
2023-12-31T01:43:00.827Z,100100
2023-12-31T01:44:01.782Z,100090
2023-12-31T01:45:01.184Z,100090
2023-12-31T01:46:01.399Z,100090
2023-12-31T01:47:00.676Z,100090
2023-12-31T01:48:00.812Z,100090
2023-12-31T01:49:01.185Z,100090
2023-12-31T01:50:02.318Z,100090
2023-12-31T01:51:01.705Z,100080
2023-12-31T01:52:01.455Z,100090
2023-12-31T01:53:00.943Z,100090
2023-12-31T01:54:03.676Z,100090
2023-12-31T01:55:02.931Z,100090
2023-12-31T01:56:01.030Z,100090
2023-12-31T01:57:01.035Z,100100
2023-12-31T01:58:01.447Z,100100
2023-12-31T01:59:01.720Z,100090
2023-12-31T02:00:02.139Z,100100
2023-12-31T02:01:00.838Z,100100
2023-12-31T02:02:00.774Z,100100
2023-12-31T02:03:01.086Z,100100
2023-12-31T02:04:00.683Z,100090
2023-12-31T02:05:01.048Z,100090
2023-12-31T02:06:00.712Z,100100
2023-12-31T02:07:01.069Z,100090
2023-12-31T02:08:00.706Z,100090
2023-12-31T02:09:00.703Z,100090
2023-12-31T02:10:00.754Z,100090
2023-12-31T02:11:00.756Z,100090
2023-12-31T02:12:00.784Z,100090
2023-12-31T02:13:01.260Z,100090
2023-12-31T02:14:00.698Z,100090
2023-12-31T02:15:00.700Z,100090
2023-12-31T02:16:00.671Z,100080
2023-12-31T02:17:00.670Z,100080
2023-12-31T02:18:02.663Z,100080
2023-12-31T02:19:00.655Z,100080
2023-12-31T02:20:00.952Z,100080
2023-12-31T02:21:00.674Z,100080
2023-12-31T02:22:01.548Z,100080
2023-12-31T02:23:00.822Z,100080
2023-12-31T02:24:01.054Z,100080
2023-12-31T02:25:05.097Z,100080
2023-12-31T02:26:10.034Z,100080
2023-12-31T02:27:00.693Z,100080
2023-12-31T02:28:00.675Z,100080
2023-12-31T02:29:00.664Z,100090
2023-12-31T02:30:00.756Z,100080
2023-12-31T02:31:00.953Z,100080
2023-12-31T02:32:00.662Z,100090
2023-12-31T02:33:00.824Z,100080
2023-12-31T02:34:00.844Z,100080
2023-12-31T02:35:00.712Z,100080
2023-12-31T02:36:00.743Z,100080
2023-12-31T02:37:00.710Z,100080
2023-12-31T02:38:00.711Z,100090
2023-12-31T02:39:00.705Z,100090
2023-12-31T02:40:00.663Z,100090
2023-12-31T02:41:00.672Z,100090
2023-12-31T02:42:00.671Z,100090
2023-12-31T02:43:00.994Z,100090
2023-12-31T02:44:01.689Z,100080
2023-12-31T02:45:00.708Z,100080
2023-12-31T02:46:00.663Z,100080
2023-12-31T02:47:00.689Z,100070
2023-12-31T02:48:01.031Z,100070
2023-12-31T02:49:00.745Z,100070
2023-12-31T02:50:00.686Z,100070
2023-12-31T02:51:00.906Z,100070
2023-12-31T02:52:00.658Z,100070
2023-12-31T02:53:00.715Z,100070
2023-12-31T02:54:00.712Z,100070
2023-12-31T02:55:00.727Z,100070
2023-12-31T02:56:00.743Z,100070
2023-12-31T02:57:00.769Z,100070
2023-12-31T02:58:00.694Z,100070
2023-12-31T02:59:00.658Z,100060
2023-12-31T03:00:00.730Z,100070
2023-12-31T03:01:00.921Z,100070
2023-12-31T03:02:01.010Z,100070
2023-12-31T03:03:01.052Z,100070
2023-12-31T03:04:00.666Z,100060
2023-12-31T03:05:00.749Z,100060
2023-12-31T03:06:00.787Z,100070
2023-12-31T03:07:00.733Z,100060
2023-12-31T03:08:00.697Z,100070
2023-12-31T03:09:00.662Z,100060
2023-12-31T03:10:01.066Z,100060
2023-12-31T03:11:00.705Z,100060
2023-12-31T03:12:00.674Z,100060
2023-12-31T03:13:00.884Z,100060
2023-12-31T03:14:00.742Z,100060
2023-12-31T03:15:00.670Z,100060
2023-12-31T03:16:04.970Z,100060
2023-12-31T03:17:00.760Z,100060
2023-12-31T03:18:00.912Z,100060
2023-12-31T03:19:00.715Z,100060
2023-12-31T03:20:00.670Z,100060
2023-12-31T03:21:00.672Z,100060
2023-12-31T03:22:00.801Z,100060
2023-12-31T03:23:00.963Z,100060
2023-12-31T03:24:00.661Z,100060
2023-12-31T03:25:00.721Z,100060
2023-12-31T03:26:00.665Z,100070
2023-12-31T03:27:00.665Z,100070
2023-12-31T03:28:00.740Z,100070
2023-12-31T03:29:01.164Z,100070
2023-12-31T03:30:00.655Z,100070
2023-12-31T03:31:00.719Z,100070
2023-12-31T03:32:01.059Z,100060
2023-12-31T03:33:00.814Z,100070
2023-12-31T03:34:00.905Z,100070
2023-12-31T03:35:00.753Z,100070
2023-12-31T03:36:00.672Z,100070
2023-12-31T03:37:00.651Z,100070
2023-12-31T03:38:00.722Z,100060
2023-12-31T03:39:01.312Z,100060
2023-12-31T03:40:00.714Z,100060
2023-12-31T03:41:00.679Z,100060
2023-12-31T03:42:00.665Z,100060
2023-12-31T03:43:00.990Z,100060
2023-12-31T03:44:00.674Z,100060
2023-12-31T03:45:00.742Z,100060
2023-12-31T03:46:00.768Z,100060
2023-12-31T03:47:00.686Z,100060
2023-12-31T03:48:00.765Z,100060
2023-12-31T03:49:00.851Z,100060
2023-12-31T03:50:00.702Z,100060
2023-12-31T03:51:00.690Z,100060
2023-12-31T03:52:00.705Z,100060
2023-12-31T03:53:00.752Z,100050
2023-12-31T03:54:00.736Z,100050
2023-12-31T03:55:00.697Z,100050
2023-12-31T03:56:00.845Z,100060
2023-12-31T03:57:00.655Z,100050
2023-12-31T03:58:00.660Z,100050
2023-12-31T03:59:00.661Z,100050
2023-12-31T04:00:00.731Z,100050
2023-12-31T04:01:00.783Z,100050
2023-12-31T04:02:00.759Z,100060
2023-12-31T04:03:01.800Z,100050
2023-12-31T04:04:00.687Z,100050
2023-12-31T04:05:02.836Z,100050
2023-12-31T04:06:00.870Z,100050
2023-12-31T04:07:00.656Z,100050
2023-12-31T04:08:00.736Z,100050
2023-12-31T04:09:00.650Z,100040
2023-12-31T04:10:01.048Z,100050
2023-12-31T04:11:00.698Z,100050
2023-12-31T04:12:00.867Z,100050
2023-12-31T04:13:00.830Z,100040
2023-12-31T04:14:00.672Z,100050
2023-12-31T04:15:00.652Z,100050
2023-12-31T04:16:00.688Z,100050
2023-12-31T04:17:00.705Z,100040
2023-12-31T04:18:00.759Z,100040
2023-12-31T04:19:00.710Z,100040
2023-12-31T04:20:01.076Z,100050
2023-12-31T04:21:00.805Z,100040
2023-12-31T04:22:00.666Z,100050
2023-12-31T04:23:00.954Z,100050
2023-12-31T04:24:00.727Z,100050
2023-12-31T04:25:00.674Z,100050
2023-12-31T04:26:00.676Z,100040
2023-12-31T04:27:00.685Z,100050
2023-12-31T04:28:00.730Z,100040
2023-12-31T04:29:00.681Z,100040
2023-12-31T04:30:00.696Z,100040
2023-12-31T04:31:02.663Z,100040
2023-12-31T04:32:00.734Z,100050
2023-12-31T04:33:00.874Z,100040
2023-12-31T04:34:00.740Z,100040
2023-12-31T04:35:01.035Z,100040
2023-12-31T04:36:04.393Z,100040
2023-12-31T04:37:00.719Z,100040
2023-12-31T04:38:00.807Z,100030
2023-12-31T04:39:00.660Z,100030
2023-12-31T04:40:00.725Z,100030
2023-12-31T04:41:00.691Z,100030
2023-12-31T04:42:00.721Z,100030
2023-12-31T04:43:00.968Z,100030
2023-12-31T04:44:00.653Z,100030
2023-12-31T04:45:03.685Z,100020
2023-12-31T04:46:04.147Z,100020
2023-12-31T04:47:00.680Z,100020
2023-12-31T04:48:00.750Z,100020
2023-12-31T04:49:00.645Z,100010
2023-12-31T04:50:00.869Z,100010
2023-12-31T04:51:00.645Z,100010
2023-12-31T04:52:00.730Z,100010
2023-12-31T04:53:00.760Z,100010
2023-12-31T04:54:00.676Z,100010
2023-12-31T04:55:00.671Z,100010
2023-12-31T04:56:00.745Z,100010
2023-12-31T04:57:00.765Z,100010
2023-12-31T04:58:00.694Z,100010
2023-12-31T04:59:00.708Z,100010
2023-12-31T05:00:00.762Z,100010
2023-12-31T05:01:00.682Z,100010
2023-12-31T05:02:00.751Z,100010
2023-12-31T05:03:00.709Z,100020
2023-12-31T05:04:00.761Z,100020
2023-12-31T05:05:00.782Z,100010
2023-12-31T05:06:00.643Z,100010
2023-12-31T05:07:00.705Z,100020
2023-12-31T05:08:00.665Z,100010
2023-12-31T05:09:00.654Z,100010
2023-12-31T05:10:00.689Z,100010
2023-12-31T05:11:00.688Z,100020
2023-12-31T05:12:00.687Z,100020
2023-12-31T05:13:00.824Z,100020
2023-12-31T05:14:00.710Z,100020
2023-12-31T05:15:00.806Z,100020
2023-12-31T05:16:01.541Z,100010
2023-12-31T05:17:00.740Z,100010
2023-12-31T05:18:00.734Z,100010
2023-12-31T05:19:01.115Z,100010
2023-12-31T05:20:00.712Z,100010
2023-12-31T05:21:01.590Z,100010
2023-12-31T05:22:00.697Z,100010
2023-12-31T05:23:00.821Z,100000
2023-12-31T05:24:00.654Z,100000
2023-12-31T05:25:00.657Z,100000
2023-12-31T05:26:00.662Z,100000
2023-12-31T05:27:00.679Z,100000
2023-12-31T05:28:00.708Z,100000
2023-12-31T05:29:01.242Z,100000
2023-12-31T05:30:00.757Z,100000
2023-12-31T05:31:00.726Z,100000
2023-12-31T05:32:00.699Z,99990
2023-12-31T05:33:00.794Z,99990
2023-12-31T05:34:00.721Z,99990
2023-12-31T05:35:00.688Z,99990
2023-12-31T05:36:00.680Z,99990
2023-12-31T05:37:00.651Z,99990
2023-12-31T05:38:00.682Z,99990
2023-12-31T05:39:00.648Z,99990
2023-12-31T05:40:00.723Z,99990
2023-12-31T05:41:00.722Z,99990
2023-12-31T05:42:00.733Z,99990
2023-12-31T05:43:00.698Z,99980
2023-12-31T05:44:00.700Z,99980
2023-12-31T05:45:00.687Z,99980
2023-12-31T05:46:00.725Z,99980
2023-12-31T05:47:00.808Z,99980
2023-12-31T05:48:00.808Z,99980
2023-12-31T05:49:00.826Z,99980
2023-12-31T05:50:00.817Z,99980
2023-12-31T05:51:00.776Z,99970
2023-12-31T05:52:00.691Z,99980
2023-12-31T05:53:00.688Z,99980
2023-12-31T05:54:00.751Z,99980
2023-12-31T05:55:00.764Z,99980
2023-12-31T05:56:00.690Z,99980
2023-12-31T05:57:00.669Z,99980
2023-12-31T05:58:00.687Z,99980
2023-12-31T05:59:00.719Z,99980
2023-12-31T06:00:01.425Z,99980
2023-12-31T06:01:00.989Z,99980
2023-12-31T06:02:00.746Z,99980
2023-12-31T06:03:00.801Z,99980
2023-12-31T06:04:00.714Z,99980
2023-12-31T06:05:00.682Z,99970
2023-12-31T06:06:00.845Z,99970
2023-12-31T06:07:00.657Z,99970
2023-12-31T06:08:00.710Z,99960
2023-12-31T06:09:00.685Z,99960
2023-12-31T06:10:00.658Z,99960
2023-12-31T06:11:00.654Z,99950
2023-12-31T06:12:00.712Z,99960
2023-12-31T06:13:00.727Z,99950
2023-12-31T06:14:00.665Z,99950
2023-12-31T06:15:00.731Z,99950
2023-12-31T06:16:00.681Z,99950
2023-12-31T06:17:00.668Z,99940
2023-12-31T06:18:00.817Z,99940
2023-12-31T06:19:00.703Z,99940
2023-12-31T06:20:01.376Z,99940
2023-12-31T06:21:00.710Z,99930
2023-12-31T06:22:00.703Z,99930
2023-12-31T06:23:00.722Z,99930
2023-12-31T06:24:00.716Z,99920
2023-12-31T06:25:01.046Z,99920
2023-12-31T06:26:00.655Z,99920
2023-12-31T06:27:00.669Z,99920
2023-12-31T06:28:00.660Z,99920
2023-12-31T06:29:00.705Z,99920
2023-12-31T06:30:00.848Z,99910
2023-12-31T06:31:00.818Z,99910
2023-12-31T06:32:00.688Z,99910
2023-12-31T06:33:00.825Z,99910
2023-12-31T06:34:00.652Z,99910
2023-12-31T06:35:01.971Z,99910
2023-12-31T06:36:00.667Z,99910
2023-12-31T06:37:00.757Z,99910
2023-12-31T06:38:00.658Z,99910
2023-12-31T06:39:00.687Z,99910
2023-12-31T06:40:00.659Z,99910
2023-12-31T06:41:08.106Z,99910
2023-12-31T06:42:00.654Z,99910
2023-12-31T06:43:00.857Z,99900
2023-12-31T06:44:00.734Z,99900
2023-12-31T06:45:00.814Z,99900
2023-12-31T06:46:01.718Z,99900
2023-12-31T06:47:00.700Z,99900
2023-12-31T06:48:00.885Z,99910
2023-12-31T06:49:00.738Z,99900
2023-12-31T06:50:00.701Z,99910
2023-12-31T06:51:00.687Z,99910
2023-12-31T06:52:00.662Z,99910
2023-12-31T06:53:00.774Z,99910
2023-12-31T06:54:00.671Z,99910
2023-12-31T06:55:00.662Z,99910
2023-12-31T06:56:08.301Z,99910
2023-12-31T06:57:00.775Z,99910
2023-12-31T06:58:00.655Z,99900
2023-12-31T06:59:00.737Z,99900
2023-12-31T07:00:00.713Z,99900
2023-12-31T07:01:00.678Z,99890
2023-12-31T07:02:00.705Z,99890
2023-12-31T07:03:00.780Z,99900
2023-12-31T07:04:00.846Z,99890
2023-12-31T07:05:00.859Z,99890
2023-12-31T07:06:00.919Z,99890
2023-12-31T07:07:00.714Z,99890
2023-12-31T07:08:00.807Z,99890
2023-12-31T07:09:00.676Z,99890
2023-12-31T07:10:00.704Z,99890
2023-12-31T07:11:00.816Z,99890
2023-12-31T07:12:00.652Z,99890
2023-12-31T07:13:00.718Z,99890
2023-12-31T07:14:00.708Z,99890
2023-12-31T07:15:00.783Z,99890
2023-12-31T07:16:00.768Z,99890
2023-12-31T07:17:00.847Z,99890
2023-12-31T07:18:01.372Z,99890
2023-12-31T07:19:00.805Z,99890
2023-12-31T07:20:00.960Z,99890
2023-12-31T07:21:00.664Z,99890
2023-12-31T07:22:00.723Z,99900
2023-12-31T07:23:00.862Z,99890
2023-12-31T07:24:00.687Z,99890
2023-12-31T07:25:01.069Z,99890
2023-12-31T07:26:00.703Z,99890
2023-12-31T07:27:00.669Z,99890
2023-12-31T07:28:00.699Z,99880
2023-12-31T07:29:09.768Z,99880
2023-12-31T07:30:00.698Z,99880
2023-12-31T07:31:00.674Z,99880
2023-12-31T07:32:00.719Z,99880
2023-12-31T07:33:00.722Z,99880
2023-12-31T07:34:00.843Z,99880
2023-12-31T07:35:00.748Z,99870
2023-12-31T07:36:00.644Z,99880
2023-12-31T07:37:00.692Z,99870
2023-12-31T07:38:01.120Z,99870
2023-12-31T07:39:00.681Z,99870
2023-12-31T07:40:03.931Z,99870
2023-12-31T07:41:00.791Z,99870
2023-12-31T07:42:02.120Z,99870
2023-12-31T07:43:00.701Z,99870
2023-12-31T07:44:00.848Z,99870
2023-12-31T07:45:01.225Z,99870
2023-12-31T07:46:00.708Z,99860
2023-12-31T07:47:00.781Z,99870
2023-12-31T07:48:00.842Z,99870
2023-12-31T07:49:00.702Z,99860
2023-12-31T07:50:02.316Z,99860
2023-12-31T07:51:00.667Z,99860
2023-12-31T07:52:00.874Z,99860
2023-12-31T07:53:00.700Z,99860
2023-12-31T07:54:00.659Z,99860
2023-12-31T07:55:02.848Z,99860
2023-12-31T07:56:00.753Z,99860
2023-12-31T07:57:00.745Z,99860
2023-12-31T07:58:00.693Z,99860
2023-12-31T07:59:00.723Z,99860
2023-12-31T08:00:02.864Z,99860
2023-12-31T08:01:00.893Z,99860
2023-12-31T08:02:01.291Z,99870
2023-12-31T08:03:00.765Z,99870
2023-12-31T08:04:00.719Z,99860
2023-12-31T08:05:00.866Z,99870
2023-12-31T08:06:00.750Z,99860
2023-12-31T08:07:00.808Z,99870
2023-12-31T08:08:00.720Z,99860
2023-12-31T08:09:00.708Z,99860
2023-12-31T08:10:00.666Z,99860
2023-12-31T08:11:03.718Z,99860
2023-12-31T08:12:00.679Z,99870
2023-12-31T08:13:00.835Z,99870
2023-12-31T08:14:00.821Z,99870
2023-12-31T08:15:00.661Z,99870
2023-12-31T08:16:00.943Z,99870
2023-12-31T08:17:00.970Z,99870
2023-12-31T08:18:00.862Z,99870
2023-12-31T08:19:00.758Z,99870
2023-12-31T08:20:00.876Z,99860
2023-12-31T08:21:00.706Z,99860
2023-12-31T08:22:00.712Z,99860
2023-12-31T08:23:00.829Z,99860
2023-12-31T08:24:00.667Z,99850
2023-12-31T08:25:00.732Z,99850
2023-12-31T08:26:00.711Z,99850
2023-12-31T08:27:00.723Z,99850
2023-12-31T08:28:00.702Z,99850
2023-12-31T08:29:01.560Z,99850
2023-12-31T08:30:00.689Z,99860
2023-12-31T08:31:00.806Z,99850
2023-12-31T08:32:00.782Z,99850
2023-12-31T08:33:00.779Z,99860
2023-12-31T08:34:00.757Z,99850
2023-12-31T08:35:00.815Z,99850
2023-12-31T08:36:00.744Z,99850
2023-12-31T08:37:00.650Z,99860
2023-12-31T08:38:00.686Z,99850
2023-12-31T08:39:00.670Z,99850
2023-12-31T08:40:00.679Z,99850
2023-12-31T08:41:00.743Z,99850
2023-12-31T08:42:00.676Z,99850
2023-12-31T08:43:00.769Z,99850
2023-12-31T08:44:00.806Z,99850
2023-12-31T08:45:06.355Z,99850
2023-12-31T08:46:00.662Z,99850
2023-12-31T08:47:00.739Z,99850
2023-12-31T08:48:00.787Z,99850
2023-12-31T08:49:01.017Z,99850
2023-12-31T08:50:00.782Z,99850
2023-12-31T08:51:00.658Z,99850
2023-12-31T08:52:00.660Z,99850
2023-12-31T08:53:00.682Z,99850
2023-12-31T08:54:00.694Z,99860
2023-12-31T08:55:00.893Z,99850
2023-12-31T08:56:00.699Z,99850
2023-12-31T08:57:00.656Z,99860
2023-12-31T08:58:00.707Z,99850
2023-12-31T08:59:00.732Z,99850
2023-12-31T09:00:00.944Z,99850
2023-12-31T09:01:00.681Z,99850
2023-12-31T09:02:00.701Z,99850
2023-12-31T09:03:00.671Z,99850
2023-12-31T09:04:00.726Z,99850
2023-12-31T09:05:00.974Z,99850
2023-12-31T09:06:00.655Z,99850
2023-12-31T09:07:00.939Z,99850
2023-12-31T09:08:01.814Z,99840
2023-12-31T09:09:00.705Z,99840
2023-12-31T09:10:01.564Z,99840
2023-12-31T09:11:00.763Z,99840
2023-12-31T09:12:00.673Z,99840
2023-12-31T09:13:00.730Z,99840
2023-12-31T09:14:00.792Z,99840
2023-12-31T09:15:00.748Z,99830
2023-12-31T09:16:00.750Z,99830
2023-12-31T09:17:00.697Z,99830
2023-12-31T09:18:00.772Z,99830
2023-12-31T09:19:00.693Z,99830
2023-12-31T09:20:01.352Z,99830
2023-12-31T09:21:00.706Z,99830
2023-12-31T09:22:00.721Z,99830
2023-12-31T09:23:00.774Z,99820
2023-12-31T09:24:00.666Z,99820
2023-12-31T09:25:01.095Z,99830
2023-12-31T09:26:00.750Z,99820
2023-12-31T09:27:00.848Z,99820
2023-12-31T09:28:00.821Z,99820
2023-12-31T09:29:00.738Z,99820
2023-12-31T09:30:00.818Z,99820
2023-12-31T09:31:00.785Z,99810
2023-12-31T09:32:00.778Z,99810
2023-12-31T09:33:00.877Z,99810
2023-12-31T09:34:00.781Z,99810
2023-12-31T09:35:00.776Z,99810
2023-12-31T09:36:02.954Z,99800
2023-12-31T09:37:00.716Z,99800
2023-12-31T09:38:00.759Z,99810
2023-12-31T09:39:00.664Z,99810
2023-12-31T09:40:00.668Z,99800
2023-12-31T09:41:05.273Z,99800
2023-12-31T09:42:08.149Z,99800
2023-12-31T09:43:02.414Z,99800
2023-12-31T09:44:02.704Z,99800
2023-12-31T09:45:02.875Z,99790
2023-12-31T09:46:03.886Z,99790
2023-12-31T09:47:09.598Z,99780
2023-12-31T09:48:01.309Z,99780
2023-12-31T09:49:00.974Z,99780
2023-12-31T09:50:01.852Z,99780
2023-12-31T09:51:00.724Z,99780
2023-12-31T09:52:02.370Z,99780
2023-12-31T09:53:01.943Z,99780
2023-12-31T09:54:04.595Z,99780
2023-12-31T09:55:01.188Z,99780
2023-12-31T09:56:02.011Z,99780
2023-12-31T09:57:01.531Z,99770
2023-12-31T09:58:03.118Z,99770
2023-12-31T10:00:01.866Z,99760
2023-12-31T10:01:00.827Z,99760
2023-12-31T10:02:04.206Z,99760
2023-12-31T10:03:02.421Z,99760
2023-12-31T10:04:01.116Z,99750
2023-12-31T10:05:02.243Z,99760
2023-12-31T10:06:01.945Z,99750
2023-12-31T10:07:00.683Z,99750
2023-12-31T10:08:00.741Z,99750
2023-12-31T10:09:01.517Z,99750
2023-12-31T10:10:00.915Z,99740
2023-12-31T10:11:01.893Z,99740
2023-12-31T10:12:00.672Z,99740
2023-12-31T10:13:00.871Z,99740
2023-12-31T10:14:00.688Z,99740
2023-12-31T10:15:00.804Z,99740
2023-12-31T10:16:11.296Z,99740
2023-12-31T10:17:06.942Z,99740
2023-12-31T10:18:03.719Z,99740
2023-12-31T10:19:00.879Z,99740
2023-12-31T10:20:01.931Z,99740
2023-12-31T10:21:00.659Z,99730
2023-12-31T10:22:04.785Z,99730
2023-12-31T10:23:00.818Z,99730
2023-12-31T10:24:00.698Z,99730
2023-12-31T10:25:17.001Z,99730
2023-12-31T10:26:00.789Z,99720
2023-12-31T10:27:01.533Z,99720
2023-12-31T10:28:00.679Z,99720
2023-12-31T10:29:01.085Z,99720
2023-12-31T10:30:00.701Z,99720
2023-12-31T10:31:02.629Z,99720
2023-12-31T10:32:01.124Z,99720
2023-12-31T10:33:11.455Z,99710
2023-12-31T10:34:17.686Z,99710
2023-12-31T10:35:03.351Z,99710
2023-12-31T10:36:04.305Z,99710
2023-12-31T10:37:02.404Z,99710
2023-12-31T10:38:03.105Z,99700
2023-12-31T10:39:00.726Z,99700
2023-12-31T10:40:17.556Z,99700
2023-12-31T10:41:08.187Z,99690
2023-12-31T10:42:02.110Z,99690
2023-12-31T10:43:06.779Z,99690
2023-12-31T10:44:02.050Z,99690
2023-12-31T10:45:01.591Z,99680
2023-12-31T10:46:01.861Z,99690
2023-12-31T10:47:09.141Z,99690
2023-12-31T10:48:01.116Z,99680
2023-12-31T10:49:03.502Z,99690
2023-12-31T10:50:01.111Z,99690
2023-12-31T10:51:05.773Z,99690
2023-12-31T10:52:03.216Z,99690
2023-12-31T10:53:03.379Z,99690
2023-12-31T10:54:05.674Z,99690
2023-12-31T10:55:01.795Z,99680
2023-12-31T10:56:01.368Z,99680
2023-12-31T10:57:01.256Z,99680
2023-12-31T10:58:01.268Z,99680
2023-12-31T10:59:01.669Z,99680
2023-12-31T11:00:00.739Z,99680
2023-12-31T11:01:01.496Z,99670
2023-12-31T11:02:01.384Z,99670
2023-12-31T11:03:04.559Z,99670
2023-12-31T11:04:03.074Z,99670
2023-12-31T11:05:01.840Z,99670
2023-12-31T11:06:00.982Z,99670
2023-12-31T11:07:01.913Z,99660
2023-12-31T11:08:01.950Z,99660
2023-12-31T11:09:01.055Z,99660
2023-12-31T11:10:01.150Z,99650
2023-12-31T11:11:00.826Z,99650
2023-12-31T11:12:01.399Z,99650
2023-12-31T11:13:03.023Z,99640
2023-12-31T11:14:02.253Z,99640
2023-12-31T11:15:17.947Z,99640
2023-12-31T11:16:05.177Z,99640
2023-12-31T11:17:27.932Z,99630
2023-12-31T11:18:14.115Z,99630
2023-12-31T11:19:43.820Z,99630
2023-12-31T11:20:08.099Z,99630
2023-12-31T11:21:12.194Z,99620
2023-12-31T11:22:19.637Z,99630
2023-12-31T11:23:16.534Z,99620
2023-12-31T11:24:05.122Z,99620
2023-12-31T11:25:00.684Z,99620
2023-12-31T11:26:00.902Z,99610
2023-12-31T11:27:08.140Z,99610
2023-12-31T11:28:00.670Z,99610
2023-12-31T11:29:01.275Z,99610
2023-12-31T11:30:01.287Z,99610
2023-12-31T11:31:09.275Z,99610
2023-12-31T11:32:03.212Z,99600
2023-12-31T11:33:00.741Z,99600
2023-12-31T11:34:00.799Z,99600
2023-12-31T11:35:00.798Z,99600
2023-12-31T11:36:03.802Z,99600
2023-12-31T11:37:00.717Z,99600
2023-12-31T11:38:03.795Z,99600
2023-12-31T11:39:02.634Z,99600
2023-12-31T11:40:00.697Z,99590
2023-12-31T11:41:00.942Z,99590
2023-12-31T11:42:11.027Z,99580
2023-12-31T11:43:09.411Z,99580
2023-12-31T11:44:00.962Z,99580
2023-12-31T11:45:01.166Z,99570
2023-12-31T11:46:00.691Z,99570
2023-12-31T11:47:00.783Z,99570
2023-12-31T11:48:02.943Z,99560
2023-12-31T11:49:00.917Z,99560
2023-12-31T11:50:07.986Z,99560
2023-12-31T11:51:00.674Z,99560
2023-12-31T11:52:00.700Z,99560
2023-12-31T11:53:00.703Z,99560
2023-12-31T11:54:03.712Z,99560
2023-12-31T11:55:00.771Z,99550
2023-12-31T11:56:01.135Z,99550
2023-12-31T11:57:02.363Z,99550
2023-12-31T11:58:01.633Z,99550
2023-12-31T11:59:00.808Z,99540
2023-12-31T12:00:01.028Z,99540
2023-12-31T12:01:00.712Z,99540
2023-12-31T12:02:02.372Z,99540
2023-12-31T12:03:02.598Z,99540
2023-12-31T12:04:00.712Z,99530
2023-12-31T12:05:01.429Z,99530
2023-12-31T12:06:01.330Z,99520
2023-12-31T12:07:01.366Z,99520
2023-12-31T12:08:00.798Z,99520
2023-12-31T12:09:00.657Z,99510
2023-12-31T12:10:03.039Z,99510
2023-12-31T12:11:01.252Z,99510
2023-12-31T12:12:02.030Z,99510
2023-12-31T12:13:01.284Z,99500
2023-12-31T12:14:01.050Z,99500
2023-12-31T12:15:02.702Z,99500
2023-12-31T12:16:00.717Z,99500
2023-12-31T12:17:01.270Z,99490
2023-12-31T12:18:00.963Z,99490
2023-12-31T12:19:00.815Z,99480
2023-12-31T12:20:00.959Z,99480
2023-12-31T12:21:00.878Z,99470
2023-12-31T12:22:00.882Z,99470
2023-12-31T12:23:00.981Z,99470
2023-12-31T12:24:03.125Z,99470
2023-12-31T12:25:01.240Z,99460
2023-12-31T12:26:02.684Z,99470
2023-12-31T12:27:04.074Z,99470
2023-12-31T12:28:00.681Z,99460
2023-12-31T12:29:01.158Z,99460
2023-12-31T12:30:00.866Z,99460
2023-12-31T12:31:00.696Z,99460
2023-12-31T12:32:00.757Z,99450
2023-12-31T12:33:00.926Z,99460
2023-12-31T12:34:03.177Z,99460
2023-12-31T12:35:00.729Z,99450
2023-12-31T12:36:01.545Z,99460
2023-12-31T12:37:02.022Z,99450
2023-12-31T12:38:00.846Z,99450
2023-12-31T12:39:00.747Z,99450
2023-12-31T12:40:00.680Z,99450
2023-12-31T12:41:01.095Z,99450
2023-12-31T12:42:00.690Z,99440